createdAt,value
2023-03-06T00:00:48.465Z,10.85
2023-03-06T00:03:16.329Z,10.30
2023-03-06T00:05:43.567Z,10.40
2023-03-06T00:08:10.544Z,10.55
2023-03-06T00:10:37.803Z,11.50
2023-03-06T00:13:08.533Z,10.73
2023-03-06T00:15:35.505Z,11.20
2023-03-06T00:18:06.775Z,11.33
2023-03-06T00:20:34.764Z,11.00
2023-03-06T00:23:01.782Z,13.05
2023-03-06T00:25:28.670Z,12.40
2023-03-06T00:27:55.761Z,13.07
2023-03-06T00:30:25.538Z,12.30
2023-03-06T00:32:53.097Z,12.32
2023-03-06T00:35:23.261Z,12.95
2023-03-06T00:37:50.531Z,11.75
2023-03-06T00:40:19.602Z,14.07
2023-03-06T00:42:47.431Z,11.63
2023-03-06T00:45:15.060Z,13.43
2023-03-06T00:47:42.510Z,13.13
2023-03-06T00:50:10.581Z,12.52
2023-03-06T00:52:37.672Z,13.30
2023-03-06T00:55:05.450Z,14.20
2023-03-06T00:57:35.938Z,11.68
2023-03-06T01:00:04.291Z,14.82
2023-03-06T01:02:31.713Z,12.98
2023-03-06T01:04:59.014Z,13.52
2023-03-06T01:07:27.681Z,12.47
2023-03-06T01:09:54.627Z,13.15
2023-03-06T01:12:23.527Z,13.35
2023-03-06T01:14:51.470Z,13.88
2023-03-06T01:17:18.560Z,13.55
2023-03-06T01:19:45.572Z,13.20
2023-03-06T01:22:13.995Z,14.98
2023-03-06T01:24:41.118Z,12.30
2023-03-06T01:27:08.136Z,11.43
2023-03-06T01:29:35.240Z,12.93
2023-03-06T01:32:02.275Z,8.77
2023-03-06T01:34:29.540Z,11.18
2023-03-06T01:36:56.496Z,11.63
2023-03-06T01:39:23.308Z,11.57
2023-03-06T01:41:50.329Z,10.50
2023-03-06T01:44:17.320Z,9.93
2023-03-06T01:46:47.315Z,9.90
2023-03-06T01:49:19.981Z,11.85
2023-03-06T01:52:09.039Z,10.38
2023-03-06T01:54:46.891Z,12.35
2023-03-06T01:57:24.013Z,9.67
2023-03-06T02:00:14.847Z,11.52
2023-03-06T02:02:47.522Z,10.43
2023-03-06T02:05:14.573Z,8.63
2023-03-06T02:07:42.948Z,9.90
2023-03-06T02:10:14.970Z,7.87
2023-03-06T02:12:43.780Z,11.00
2023-03-06T02:15:16.885Z,10.55
2023-03-06T02:17:45.748Z,11.18
2023-03-06T02:20:44.425Z,11.30
2023-03-06T02:23:38.377Z,8.50
2023-03-06T02:26:06.771Z,11.57
2023-03-06T02:28:34.356Z,11.07
2023-03-06T02:31:01.321Z,10.80
2023-03-06T02:33:29.761Z,12.05
2023-03-06T02:36:00.069Z,13.70
2023-03-06T02:38:43.844Z,13.23
2023-03-06T02:41:11.617Z,10.55
2023-03-06T02:43:45.970Z,12.77
2023-03-06T02:46:13.744Z,10.95
2023-03-06T02:48:40.724Z,10.70
2023-03-06T02:51:07.557Z,9.55
2023-03-06T02:53:34.461Z,11.25
2023-03-06T02:56:01.497Z,11.77
2023-03-06T02:58:28.334Z,10.75
2023-03-06T03:00:55.352Z,11.27
2023-03-06T03:03:22.342Z,12.77
2023-03-06T03:05:49.325Z,12.88
2023-03-06T03:08:27.819Z,7.97
2023-03-06T03:10:58.326Z,11.02
2023-03-06T03:13:29.029Z,10.37
2023-03-06T03:16:05.237Z,10.30
2023-03-06T03:18:33.342Z,9.75
2023-03-06T03:21:00.541Z,8.60
2023-03-06T03:23:27.695Z,12.10
2023-03-06T03:26:09.535Z,10.70
2023-03-06T03:28:39.622Z,9.95
2023-03-06T03:31:11.269Z,11.27
2023-03-06T03:33:41.724Z,9.88
2023-03-06T03:36:09.613Z,9.20
2023-03-06T03:38:43.629Z,9.53
2023-03-06T03:41:10.539Z,10.65
2023-03-06T03:43:37.489Z,11.13
2023-03-06T03:46:04.738Z,9.90
2023-03-06T03:48:32.272Z,9.60
2023-03-06T03:51:08.901Z,9.80
2023-03-06T03:53:39.452Z,8.52
2023-03-06T03:56:08.025Z,10.07
2023-03-06T03:58:42.193Z,9.07
2023-03-06T04:01:09.657Z,9.20
2023-03-06T04:03:37.235Z,9.10
2023-03-06T04:06:06.689Z,8.35
2023-03-06T04:08:34.552Z,8.20
2023-03-06T04:11:01.688Z,8.57
2023-03-06T04:13:29.442Z,8.85
2023-03-06T04:15:56.960Z,6.83
2023-03-06T04:18:24.379Z,8.15
2023-03-06T04:20:54.054Z,8.55
2023-03-06T04:23:22.946Z,6.90
2023-03-06T04:25:50.422Z,9.25
2023-03-06T04:28:17.653Z,8.50
2023-03-06T04:30:44.826Z,7.75
2023-03-06T04:33:11.912Z,6.82
2023-03-06T04:35:39.333Z,5.95
2023-03-06T04:38:11.806Z,8.93
2023-03-06T04:40:38.736Z,8.80
2023-03-06T04:43:06.494Z,7.88
2023-03-06T04:45:34.477Z,7.90
2023-03-06T04:48:01.925Z,6.85
2023-03-06T04:50:32.516Z,7.47
2023-03-06T04:53:01.654Z,7.57
2023-03-06T04:55:29.218Z,7.88
2023-03-06T04:57:57.102Z,8.27
2023-03-06T05:00:33.288Z,7.82
2023-03-06T05:03:01.595Z,8.25
2023-03-06T05:05:28.828Z,7.07
2023-03-06T05:07:56.367Z,7.97
2023-03-06T05:10:23.520Z,7.93
2023-03-06T05:12:50.439Z,8.02
2023-03-06T05:15:18.036Z,9.23
2023-03-06T05:17:46.378Z,7.07
2023-03-06T05:20:14.102Z,6.70
2023-03-06T05:22:41.402Z,6.78
2023-03-06T05:25:08.954Z,6.40
2023-03-06T05:27:36.097Z,5.75
2023-03-06T05:30:03.790Z,5.80
2023-03-06T05:32:30.722Z,6.03
2023-03-06T05:34:57.619Z,7.63
2023-03-06T05:37:27.392Z,6.68
2023-03-06T05:39:54.499Z,7.30
2023-03-06T05:42:21.481Z,6.90
2023-03-06T05:44:48.352Z,6.32
2023-03-06T05:47:19.110Z,7.07
2023-03-06T05:49:46.884Z,8.32
2023-03-06T05:52:14.844Z,9.60
2023-03-06T05:54:41.741Z,7.33
2023-03-06T05:57:08.594Z,9.60
2023-03-06T05:59:36.002Z,9.85
2023-03-06T06:02:12.735Z,10.80
2023-03-06T06:04:39.614Z,12.50
2023-03-06T06:07:06.508Z,10.77
2023-03-06T06:09:33.393Z,10.07
2023-03-06T06:12:03.585Z,10.98
2023-03-06T06:14:33.320Z,11.52
2023-03-06T06:17:00.283Z,11.25
2023-03-06T06:19:29.324Z,10.40
2023-03-06T06:21:56.283Z,11.38
2023-03-06T06:24:25.701Z,10.27
2023-03-06T06:26:55.305Z,10.70
2023-03-06T06:29:23.055Z,10.77
2023-03-06T06:31:51.384Z,11.30
2023-03-06T06:34:18.687Z,10.10
2023-03-06T06:36:45.978Z,12.57
2023-03-06T06:39:15.876Z,10.48
2023-03-06T06:41:59.325Z,11.52
2023-03-06T06:44:26.643Z,10.07
2023-03-06T06:49:40.500Z,11.07
2023-03-06T06:52:07.667Z,11.05
2023-03-06T06:54:35.155Z,12.88
2023-03-06T06:57:02.167Z,9.60
2023-03-06T06:59:29.109Z,11.35
2023-03-06T07:01:56.015Z,12.57
2023-03-06T07:04:22.888Z,9.85
2023-03-06T07:06:49.707Z,12.88
2023-03-06T07:09:16.534Z,11.03
2023-03-06T07:11:43.303Z,11.68
2023-03-06T07:14:10.166Z,10.80
2023-03-06T07:16:37.099Z,10.43
2023-03-06T07:19:04.334Z,11.05
2023-03-06T07:21:31.415Z,10.37
2023-03-06T07:23:58.288Z,9.23
2023-03-06T07:26:26.638Z,10.27
2023-03-06T07:28:54.221Z,9.98
2023-03-06T07:31:24.362Z,9.18
2023-03-06T07:33:56.021Z,8.33
2023-03-06T07:36:23.779Z,8.57
2023-03-06T07:38:50.687Z,8.50
2023-03-06T07:41:21.204Z,8.10
2023-03-06T07:43:49.469Z,7.88
2023-03-06T07:46:17.165Z,7.37
2023-03-06T07:48:44.633Z,6.43
2023-03-06T07:51:17.802Z,6.47
2023-03-06T07:53:45.004Z,6.15
2023-03-06T07:56:12.484Z,6.20
2023-03-06T07:58:41.699Z,5.53
2023-03-06T08:01:11.296Z,5.85
2023-03-06T08:03:38.625Z,5.10
2023-03-06T08:06:14.098Z,5.70
2023-03-06T08:08:43.093Z,4.57
2023-03-06T08:11:11.677Z,4.20
2023-03-06T08:13:39.420Z,4.80
2023-03-06T08:16:06.919Z,5.13
2023-03-06T08:18:34.375Z,5.45
2023-03-06T08:21:07.412Z,3.75
2023-03-06T08:23:35.127Z,3.50
2023-03-06T08:26:05.383Z,2.90
2023-03-06T08:28:32.760Z,3.40
2023-03-06T08:31:06.868Z,3.22
2023-03-06T08:33:33.689Z,2.40
2023-03-06T08:36:02.088Z,2.93
2023-03-06T08:38:29.417Z,2.60
2023-03-06T08:40:59.424Z,3.33
2023-03-06T08:43:26.313Z,2.60
2023-03-06T08:45:54.724Z,2.85
2023-03-06T08:48:21.634Z,2.70
2023-03-06T08:50:49.024Z,2.35
2023-03-06T08:53:15.968Z,2.55
2023-03-06T08:55:42.923Z,2.30
2023-03-06T08:58:09.831Z,2.80
2023-03-06T09:00:37.097Z,3.03
2023-03-06T09:03:05.119Z,2.88
2023-03-06T09:05:32.206Z,3.08
2023-03-06T09:07:58.998Z,2.35
2023-03-06T09:10:26.890Z,2.70
2023-03-06T09:12:55.199Z,3.00
2023-03-06T09:15:24.011Z,3.00
2023-03-06T09:17:51.090Z,3.60
2023-03-06T09:20:18.805Z,2.55
2023-03-06T09:22:46.083Z,2.42
2023-03-06T09:25:14.050Z,2.13
2023-03-06T09:27:41.337Z,2.25
2023-03-06T09:30:09.175Z,2.25
2023-03-06T09:32:36.005Z,2.80
2023-03-06T09:35:02.813Z,2.75
2023-03-06T09:37:29.828Z,2.27
2023-03-06T09:39:57.704Z,2.47
2023-03-06T09:42:24.969Z,2.55
2023-03-06T09:45:02.597Z,2.10
2023-03-06T09:47:52.838Z,2.35
2023-03-06T09:50:44.724Z,2.17
2023-03-06T15:09:32.758Z,6.07
2023-03-06T15:12:08.479Z,8.40
2023-03-06T15:14:40.799Z,5.63
2023-03-06T15:17:19.848Z,5.63
2023-03-06T15:19:49.637Z,5.37
2023-03-06T15:22:26.621Z,7.90
2023-03-06T15:24:54.390Z,9.00
2023-03-06T15:27:29.543Z,8.98
2023-03-06T15:30:26.279Z,7.63
2023-03-06T15:33:09.684Z,8.63
2023-03-06T15:35:38.216Z,8.13
2023-03-06T15:38:24.531Z,10.00
2023-03-06T15:41:00.112Z,10.90
2023-03-06T15:43:31.562Z,9.25
2023-03-06T15:46:00.928Z,10.33
2023-03-06T15:48:28.513Z,11.93
2023-03-06T15:50:55.489Z,11.68
2023-03-06T15:53:22.938Z,13.23
2023-03-06T15:55:51.672Z,9.15
2023-03-06T15:58:26.530Z,12.90
2023-03-06T16:00:53.526Z,9.45
2023-03-06T16:03:20.371Z,9.40
2023-03-06T16:05:47.202Z,10.70
2023-03-06T16:08:15.041Z,12.75
2023-03-06T16:10:43.917Z,13.53
2023-03-06T16:13:26.216Z,10.88
2023-03-06T16:15:53.179Z,13.35
2023-03-06T16:18:20.274Z,9.65
2023-03-06T16:20:47.548Z,10.38
2023-03-06T16:23:15.475Z,6.37
2023-03-06T16:25:45.859Z,10.65
2023-03-06T16:28:16.453Z,13.68
2023-03-06T16:30:46.537Z,13.38
2023-03-06T16:33:14.295Z,14.32
2023-03-06T16:35:41.417Z,13.33
2023-03-06T16:38:09.953Z,12.55
2023-03-06T16:40:41.108Z,13.40
2023-03-06T16:43:09.545Z,11.55
2023-03-06T16:45:43.539Z,10.25
2023-03-06T16:48:15.626Z,11.20
2023-03-06T16:50:43.114Z,10.35
2023-03-06T16:53:09.967Z,11.82
2023-03-06T16:55:39.950Z,12.30
2023-03-06T16:58:10.029Z,11.50
2023-03-06T17:00:37.343Z,10.03
2023-03-06T17:03:04.464Z,10.35
2023-03-06T17:05:34.006Z,11.63
2023-03-06T17:08:01.209Z,11.43
2023-03-06T17:10:28.190Z,12.10
2023-03-06T17:12:56.323Z,7.27
2023-03-06T17:15:23.371Z,11.75
2023-03-06T17:17:51.712Z,11.82
2023-03-06T17:20:23.868Z,13.23
2023-03-06T17:22:50.936Z,11.43
2023-03-06T17:25:17.988Z,13.57
2023-03-06T17:27:46.500Z,11.40
2023-03-06T17:30:13.638Z,11.00
2023-03-06T17:32:41.195Z,10.65
2023-03-06T17:35:09.658Z,12.25
2023-03-06T17:37:36.595Z,10.20
2023-03-06T17:40:03.733Z,11.98
2023-03-06T17:42:30.631Z,13.30
2023-03-06T17:44:57.522Z,13.07
2023-03-06T17:47:24.282Z,14.40
2023-03-06T17:49:51.131Z,10.57
2023-03-06T17:52:18.088Z,8.82
2023-03-06T17:54:45.147Z,14.77
2023-03-06T17:57:12.147Z,12.02
2023-03-06T17:59:39.177Z,15.70
2023-03-06T18:02:06.719Z,12.83
2023-03-06T18:04:33.641Z,11.13
2023-03-06T18:07:00.527Z,10.90
2023-03-06T18:09:27.396Z,12.07
2023-03-06T18:11:54.227Z,13.30
2023-03-06T18:14:27.349Z,14.50
2023-03-06T18:16:54.184Z,13.55
2023-03-06T18:19:22.151Z,15.63
2023-03-06T18:21:49.084Z,13.93
2023-03-06T18:24:15.977Z,13.98
2023-03-06T18:26:42.912Z,10.20
2023-03-06T18:29:09.975Z,12.10
2023-03-06T18:31:39.426Z,15.00
2023-03-06T18:34:12.227Z,15.57
2023-03-06T18:36:39.981Z,12.10
2023-03-06T18:39:08.873Z,16.60
2023-03-06T18:41:36.598Z,14.68
2023-03-06T18:44:03.789Z,15.13
2023-03-06T18:46:34.182Z,12.80
2023-03-06T18:49:01.369Z,16.45
2023-03-06T18:51:28.878Z,17.63
2023-03-06T18:54:00.383Z,15.10
2023-03-06T18:56:27.495Z,17.38
2023-03-06T18:58:54.958Z,16.05
2023-03-06T19:01:27.206Z,16.02
2023-03-06T19:03:54.284Z,15.30
2023-03-06T19:06:23.550Z,17.58
2023-03-06T19:08:50.384Z,16.90
2023-03-06T19:11:18.125Z,17.80
2023-03-06T19:13:45.059Z,19.50
2023-03-06T19:16:20.489Z,18.17
2023-03-06T19:18:47.917Z,18.55
2023-03-06T19:21:17.660Z,18.42
2023-03-06T19:23:44.721Z,18.75
2023-03-06T19:26:12.640Z,16.73
2023-03-06T19:28:41.495Z,18.40
2023-03-06T19:31:09.874Z,18.60
2023-03-06T19:33:37.810Z,19.88
2023-03-06T19:36:09.817Z,20.48
2023-03-06T19:38:36.897Z,16.90
2023-03-06T19:41:04.607Z,15.77
2023-03-06T19:43:31.856Z,16.15
2023-03-06T19:45:58.866Z,19.90
2023-03-06T19:48:28.829Z,16.35
2023-03-06T19:50:55.871Z,19.73
2023-03-06T19:53:23.236Z,15.10
2023-03-06T19:55:50.175Z,18.55
2023-03-06T19:58:17.134Z,20.45
2023-03-06T20:00:44.221Z,16.63
2023-03-06T20:03:11.093Z,20.48
2023-03-06T20:05:46.267Z,20.10
2023-03-06T20:08:13.252Z,10.77
2023-03-06T20:10:40.263Z,19.77
2023-03-06T20:13:07.220Z,18.77
2023-03-06T20:15:35.135Z,19.13
2023-03-06T20:18:02.292Z,19.03
2023-03-06T20:20:29.536Z,18.95
2023-03-06T20:22:56.508Z,15.30
2023-03-06T20:25:25.708Z,20.30
2023-03-06T20:27:57.196Z,19.27
2023-03-06T20:30:26.438Z,17.50
2023-03-06T20:32:56.408Z,18.75
2023-03-06T20:35:23.236Z,20.15
2023-03-06T20:37:50.666Z,18.50
2023-03-06T20:40:17.812Z,16.45
2023-03-06T20:42:45.060Z,15.87
2023-03-06T20:45:12.136Z,16.58
2023-03-06T20:47:50.386Z,18.10
2023-03-06T20:50:18.127Z,16.27
2023-03-06T20:52:45.286Z,17.13
2023-03-06T20:55:12.243Z,17.67
2023-03-06T20:57:39.097Z,20.23
2023-03-06T21:00:09.632Z,15.38
2023-03-06T21:02:36.800Z,18.05
2023-03-06T21:05:03.995Z,19.38
2023-03-06T21:07:31.463Z,17.43
2023-03-06T21:09:58.268Z,16.65
2023-03-06T21:12:28.375Z,13.05
2023-03-06T21:14:55.655Z,15.05
2023-03-06T21:17:22.938Z,15.80
2023-03-06T21:19:50.981Z,13.63
2023-03-06T21:22:17.873Z,11.15
2023-03-06T21:24:45.072Z,12.88
2023-03-06T21:27:14.956Z,10.68
2023-03-06T21:29:41.897Z,10.55
2023-03-06T21:32:08.990Z,10.47
2023-03-06T21:34:36.177Z,8.45
2023-03-06T21:37:04.042Z,7.13
2023-03-06T21:39:31.970Z,4.60
2023-03-06T21:42:02.138Z,7.97
2023-03-06T21:44:28.949Z,4.33
2023-03-06T21:46:55.828Z,4.32
2023-03-06T21:49:26.922Z,5.47
2023-03-06T21:51:54.979Z,3.85
2023-03-06T21:54:22.245Z,5.50
2023-03-06T21:56:49.165Z,5.70
2023-03-06T21:59:19.759Z,3.20
2023-03-06T22:01:47.627Z,4.38
2023-03-06T22:04:14.599Z,3.53
2023-03-06T22:06:41.859Z,4.22
2023-03-06T22:09:12.943Z,4.20
2023-03-06T22:11:39.855Z,5.72
2023-03-06T22:14:07.042Z,4.55
2023-03-06T22:16:34.129Z,6.70
2023-03-06T22:19:01.106Z,4.47
2023-03-06T22:21:28.402Z,4.27
2023-03-06T22:23:57.551Z,4.97
2023-03-06T22:26:24.984Z,4.38
2023-03-06T22:28:52.192Z,4.25
2023-03-06T22:31:23.949Z,4.82
2023-03-06T22:33:55.877Z,5.13
2023-03-06T22:36:23.638Z,6.32
2023-03-06T22:38:55.952Z,6.20
2023-03-06T22:41:23.055Z,5.90
2023-03-06T22:43:49.867Z,5.53
2023-03-06T22:46:17.980Z,4.37
2023-03-06T22:48:45.147Z,5.18
2023-03-06T22:51:17.843Z,5.70
2023-03-06T22:53:45.519Z,3.92
2023-03-06T22:56:15.688Z,3.88
2023-03-06T22:58:44.800Z,3.80
2023-03-06T23:01:17.355Z,5.65
2023-03-06T23:03:50.088Z,5.38
2023-03-06T23:06:20.458Z,3.53
2023-03-06T23:08:52.977Z,4.13
2023-03-06T23:11:20.734Z,3.23
2023-03-06T23:14:06.218Z,4.65
2023-03-06T23:16:51.843Z,4.80
2023-03-06T23:19:38.026Z,4.05
2023-03-06T23:22:23.204Z,5.25
2023-03-06T23:25:09.363Z,4.63
2023-03-06T23:27:36.781Z,3.72
2023-03-06T23:30:05.720Z,2.88
2023-03-06T23:32:33.763Z,2.85
2023-03-06T23:35:00.909Z,3.90
2023-03-06T23:37:27.817Z,4.40
2023-03-06T23:39:55.212Z,2.80
2023-03-06T23:42:22.689Z,3.05
2023-03-06T23:44:49.528Z,3.50
2023-03-06T23:47:17.283Z,4.43
2023-03-06T23:49:44.187Z,2.60
2023-03-06T23:52:11.008Z,3.15
2023-03-06T23:54:38.156Z,3.78
2023-03-06T23:57:05.176Z,3.22
2023-03-06T23:59:34.463Z,3.10
